TimeAKST,TemperatureF,Dew PointF,Humidity,Sea Level PressureIn,VisibilityMPH,Wind Direction,Wind SpeedMPH,Gust SpeedMPH,PrecipitationIn,Events,Conditions,WindDirDegrees,DateUTC
12:53 AM,-29.9,-9999,N/A,30.35,10.0,NNW,4.6,-,N/A,,Clear,330,2013-02-18 09:53:00
1:53 AM,-34.1,-9999,N/A,30.35,10.0,West,3.5,-,N/A,,Clear,280,2013-02-18 10:53:00
3:53 AM,-33.0,-9999,N/A,30.33,10.0,Calm,Calm,-,N/A,,Clear,0,2013-02-18 12:53:00
4:53 AM,-35.0,-9999,N/A,30.33,10.0,Calm,Calm,-,N/A,,Clear,0,2013-02-18 13:53:00
6:53 AM,-32.1,-9999,N/A,30.33,10.0,NW,3.5,-,N/A,,Clear,320,2013-02-18 15:53:00
7:53 AM,-34.1,-9999,N/A,30.33,10.0,Calm,Calm,-,N/A,,Clear,0,2013-02-18 16:53:00
8:53 AM,-34.1,-9999,N/A,30.33,10.0,Calm,Calm,-,N/A,,Clear,0,2013-02-18 17:53:00
9:53 AM,-33.0,-9999,N/A,30.34,10.0,Calm,Calm,-,N/A,,Clear,0,2013-02-18 18:53:00
10:53 AM,-27.0,-32.1,77,30.32,10.0,Calm,Calm,-,N/A,,Clear,0,2013-02-18 19:53:00
11:53 AM,-18.9,-25.1,74,30.30,10.0,Calm,Calm,-,N/A,,Clear,0,2013-02-18 20:53:00
12:53 PM,-11.9,-17.0,78,30.27,10.0,Calm,Calm,-,N/A,,Partly Cloudy,0,2013-02-18 21:53:00
1:53 PM,-8.0,-18.0,61,30.29,10.0,NNW,3.5,-,N/A,,Partly Cloudy,330,2013-02-18 22:53:00
2:53 PM,-7.1,-18.0,59,30.28,10.0,Calm,Calm,-,N/A,,Partly Cloudy,0,2013-02-18 23:53:00
3:53 PM,-7.1,-18.0,59,30.22,10.0,NNE,9.2,-,N/A,,Scattered Clouds,20,2013-02-19 00:53:00
4:53 PM,-7.1,-18.0,59,30.18,10.0,NNE,5.8,-,N/A,,Clear,20,2013-02-19 01:53:00
5:53 PM,-8.0,-18.9,59,30.18,10.0,North,4.6,-,N/A,,Clear,350,2013-02-19 02:53:00
6:53 PM,-11.9,-20.0,67,30.16,10.0,Calm,Calm,-,N/A,,Clear,0,2013-02-19 03:53:00
7:53 PM,-14.1,-20.9,71,30.17,10.0,Calm,Calm,-,N/A,,Clear,0,2013-02-19 04:53:00
8:53 PM,-18.9,-25.1,74,30.14,10.0,Calm,Calm,-,N/A,,Clear,0,2013-02-19 05:53:00
9:53 PM,-22.0,-26.0,82,30.13,10.0,Calm,Calm,-,N/A,,Clear,0,2013-02-19 06:53:00
10:53 PM,-22.0,-27.0,77,30.13,10.0,Calm,Calm,-,N/A,,Clear,0,2013-02-19 07:53:00
11:53 PM,-24.0,-29.0,77,30.13,10.0,Calm,Calm,-,N/A,,Clear,0,2013-02-19 08:53:00